sensor_id;sensor_type;location;lat;lon;timestamp;P1;durP1;ratioP1;P2;durP2;ratioP2
146;SDS011;45999;48.808;9.182;2023-04-30T00:01:59;7.83;;;4.50;;
146;SDS011;45999;48.808;9.182;2023-04-30T00:04:25;6.37;;;4.60;;
146;SDS011;45999;48.808;9.182;2023-04-30T00:06:52;6.77;;;5.10;;
146;SDS011;45999;48.808;9.182;2023-04-30T00:09:19;5.03;;;4.53;;
146;SDS011;45999;48.808;9.182;2023-04-30T00:11:45;6.33;;;5.37;;
146;SDS011;45999;48.808;9.182;2023-04-30T00:14:12;5.50;;;4.70;;
146;SDS011;45999;48.808;9.182;2023-04-30T00:16:39;4.87;;;4.37;;
146;SDS011;45999;48.808;9.182;2023-04-30T00:19:06;6.57;;;4.90;;
146;SDS011;45999;48.808;9.182;2023-04-30T00:21:33;5.40;;;4.70;;
146;SDS011;45999;48.808;9.182;2023-04-30T00:24:00;5.43;;;4.93;;
146;SDS011;45999;48.808;9.182;2023-04-30T00:26:26;5.23;;;4.73;;
146;SDS011;45999;48.808;9.182;2023-04-30T00:28:53;5.70;;;5.20;;
146;SDS011;45999;48.808;9.182;2023-04-30T00:31:19;6.30;;;5.13;;
146;SDS011;45999;48.808;9.182;2023-04-30T00:33:46;5.63;;;5.10;;
146;SDS011;45999;48.808;9.182;2023-04-30T00:36:12;6.37;;;5.77;;
146;SDS011;45999;48.808;9.182;2023-04-30T00:38:39;6.13;;;5.53;;
146;SDS011;45999;48.808;9.182;2023-04-30T00:41:05;6.00;;;5.40;;
146;SDS011;45999;48.808;9.182;2023-04-30T00:43:32;6.20;;;5.60;;
146;SDS011;45999;48.808;9.182;2023-04-30T00:45:59;6.03;;;5.43;;
146;SDS011;45999;48.808;9.182;2023-04-30T00:48:27;6.23;;;5.63;;
146;SDS011;45999;48.808;9.182;2023-04-30T00:50:54;6.03;;;5.53;;
146;SDS011;45999;48.808;9.182;2023-04-30T00:53:21;6.77;;;6.07;;
146;SDS011;45999;48.808;9.182;2023-04-30T00:55:47;6.23;;;5.43;;
146;SDS011;45999;48.808;9.182;2023-04-30T00:58:14;5.80;;;5.20;;
146;SDS011;45999;48.808;9.182;2023-04-30T01:00:40;5.83;;;5.33;;
146;SDS011;45999;48.808;9.182;2023-04-30T01:03:11;7.90;;;6.40;;
146;SDS011;45999;48.808;9.182;2023-04-30T01:05:38;6.30;;;5.70;;
146;SDS011;45999;48.808;9.182;2023-04-30T01:08:05;7.90;;;5.90;;
146;SDS011;45999;48.808;9.182;2023-04-30T01:10:34;6.60;;;5.57;;
146;SDS011;45999;48.808;9.182;2023-04-30T01:13:31;6.77;;;6.07;;
146;SDS011;45999;48.808;9.182;2023-04-30T01:16:18;6.10;;;5.60;;
146;SDS011;45999;48.808;9.182;2023-04-30T01:19:04;6.73;;;5.80;;
146;SDS011;45999;48.808;9.182;2023-04-30T01:21:42;6.20;;;5.60;;
146;SDS011;45999;48.808;9.182;2023-04-30T01:24:16;7.27;;;6.53;;
146;SDS011;45999;48.808;9.182;2023-04-30T01:26:58;8.33;;;6.20;;
146;SDS011;45999;48.808;9.182;2023-04-30T01:29:45;9.23;;;6.43;;
146;SDS011;45999;48.808;9.182;2023-04-30T01:32:12;7.20;;;6.50;;
146;SDS011;45999;48.808;9.182;2023-04-30T01:34:38;7.80;;;7.00;;
146;SDS011;45999;48.808;9.182;2023-04-30T01:37:15;7.73;;;6.93;;
146;SDS011;45999;48.808;9.182;2023-04-30T01:50:48;9.77;;;7.60;;
146;SDS011;45999;48.808;9.182;2023-04-30T01:53:22;8.23;;;7.43;;
146;SDS011;45999;48.808;9.182;2023-04-30T01:56:02;9.00;;;7.50;;
146;SDS011;45999;48.808;9.182;2023-04-30T01:58:31;8.17;;;7.37;;
146;SDS011;45999;48.808;9.182;2023-04-30T02:00:58;8.10;;;7.30;;
146;SDS011;45999;48.808;9.182;2023-04-30T02:03:24;7.97;;;7.27;;
146;SDS011;45999;48.808;9.182;2023-04-30T02:05:51;8.30;;;7.50;;
146;SDS011;45999;48.808;9.182;2023-04-30T02:08:18;10.63;;;7.97;;
146;SDS011;45999;48.808;9.182;2023-04-30T02:10:44;9.27;;;8.03;;
146;SDS011;45999;48.808;9.182;2023-04-30T02:13:11;9.10;;;7.73;;
146;SDS011;45999;48.808;9.182;2023-04-30T02:15:37;9.07;;;8.17;;
146;SDS011;45999;48.808;9.182;2023-04-30T02:18:03;9.67;;;8.50;;
146;SDS011;45999;48.808;9.182;2023-04-30T02:20:30;9.30;;;8.30;;
146;SDS011;45999;48.808;9.182;2023-04-30T02:22:56;9.30;;;8.40;;
146;SDS011;45999;48.808;9.182;2023-04-30T02:25:22;9.30;;;8.40;;
146;SDS011;45999;48.808;9.182;2023-04-30T02:27:50;9.90;;;8.90;;
146;SDS011;45999;48.808;9.182;2023-04-30T02:30:16;9.57;;;8.67;;
146;SDS011;45999;48.808;9.182;2023-04-30T02:32:44;9.77;;;8.70;;
146;SDS011;45999;48.808;9.182;2023-04-30T02:35:11;9.27;;;8.37;;
146;SDS011;45999;48.808;9.182;2023-04-30T02:37:38;10.03;;;9.07;;
146;SDS011;45999;48.808;9.182;2023-04-30T02:40:04;9.73;;;8.67;;
146;SDS011;45999;48.808;9.182;2023-04-30T02:42:31;9.60;;;8.70;;
146;SDS011;45999;48.808;9.182;2023-04-30T02:44:58;8.93;;;8.13;;
146;SDS011;45999;48.808;9.182;2023-04-30T02:47:24;9.70;;;8.70;;
146;SDS011;45999;48.808;9.182;2023-04-30T02:49:50;9.57;;;8.57;;
146;SDS011;45999;48.808;9.182;2023-04-30T02:52:17;9.93;;;8.93;;
146;SDS011;45999;48.808;9.182;2023-04-30T02:54:43;10.07;;;9.07;;
146;SDS011;45999;48.808;9.182;2023-04-30T02:57:10;10.10;;;8.60;;
146;SDS011;45999;48.808;9.182;2023-04-30T02:59:36;9.30;;;8.40;;
146;SDS011;45999;48.808;9.182;2023-04-30T03:02:03;11.30;;;9.13;;
146;SDS011;45999;48.808;9.182;2023-04-30T03:04:29;9.77;;;8.80;;
146;SDS011;45999;48.808;9.182;2023-04-30T03:06:56;11.70;;;9.50;;
146;SDS011;45999;48.808;9.182;2023-04-30T03:09:22;9.27;;;8.40;;
146;SDS011;45999;48.808;9.182;2023-04-30T03:11:48;10.53;;;9.50;;
146;SDS011;45999;48.808;9.182;2023-04-30T03:14:15;10.40;;;9.30;;
146;SDS011;45999;48.808;9.182;2023-04-30T03:16:41;11.33;;;9.50;;
146;SDS011;45999;48.808;9.182;2023-04-30T03:19:07;10.73;;;9.60;;
146;SDS011;45999;48.808;9.182;2023-04-30T03:21:34;10.43;;;9.33;;
146;SDS011;45999;48.808;9.182;2023-04-30T03:24:00;11.20;;;9.17;;
146;SDS011;45999;48.808;9.182;2023-04-30T03:26:26;10.67;;;9.53;;
146;SDS011;45999;48.808;9.182;2023-04-30T03:28:53;11.17;;;9.40;;
146;SDS011;45999;48.808;9.182;2023-04-30T03:31:20;10.87;;;8.90;;
146;SDS011;45999;48.808;9.182;2023-04-30T03:33:46;9.87;;;8.97;;
146;SDS011;45999;48.808;9.182;2023-04-30T03:36:12;10.50;;;9.50;;
146;SDS011;45999;48.808;9.182;2023-04-30T03:38:39;10.53;;;9.43;;
146;SDS011;45999;48.808;9.182;2023-04-30T03:41:06;11.07;;;9.90;;
146;SDS011;45999;48.808;9.182;2023-04-30T03:43:32;10.93;;;9.57;;
146;SDS011;45999;48.808;9.182;2023-04-30T03:45:58;10.10;;;9.20;;
146;SDS011;45999;48.808;9.182;2023-04-30T03:48:25;10.87;;;9.50;;
146;SDS011;45999;48.808;9.182;2023-04-30T03:50:52;13.53;;;10.33;;
146;SDS011;45999;48.808;9.182;2023-04-30T03:53:18;10.93;;;9.93;;
146;SDS011;45999;48.808;9.182;2023-04-30T03:55:44;11.53;;;10.40;;
146;SDS011;45999;48.808;9.182;2023-04-30T03:58:11;10.73;;;9.53;;
146;SDS011;45999;48.808;9.182;2023-04-30T04:00:38;10.83;;;9.83;;
146;SDS011;45999;48.808;9.182;2023-04-30T04:03:06;11.17;;;10.07;;
146;SDS011;45999;48.808;9.182;2023-04-30T04:05:32;13.97;;;10.70;;
146;SDS011;45999;48.808;9.182;2023-04-30T04:07:59;10.67;;;9.67;;
146;SDS011;45999;48.808;9.182;2023-04-30T04:10:25;11.17;;;10.07;;
146;SDS011;45999;48.808;9.182;2023-04-30T04:12:51;11.20;;;10.10;;
146;SDS011;45999;48.808;9.182;2023-04-30T04:15:18;12.10;;;10.50;;
146;SDS011;45999;48.808;9.182;2023-04-30T04:17:44;11.07;;;10.03;;
146;SDS011;45999;48.808;9.182;2023-04-30T04:20:11;10.77;;;9.70;;
146;SDS011;45999;48.808;9.182;2023-04-30T04:22:38;11.33;;;10.00;;
146;SDS011;45999;48.808;9.182;2023-04-30T04:25:04;10.60;;;9.50;;
146;SDS011;45999;48.808;9.182;2023-04-30T04:27:31;10.73;;;9.73;;
146;SDS011;45999;48.808;9.182;2023-04-30T04:29:58;11.30;;;10.20;;
146;SDS011;45999;48.808;9.182;2023-04-30T04:32:24;10.13;;;9.23;;
146;SDS011;45999;48.808;9.182;2023-04-30T04:34:51;11.03;;;9.93;;
146;SDS011;45999;48.808;9.182;2023-04-30T04:37:19;11.07;;;9.93;;
146;SDS011;45999;48.808;9.182;2023-04-30T04:39:45;10.83;;;9.67;;
146;SDS011;45999;48.808;9.182;2023-04-30T04:42:12;11.97;;;10.77;;
146;SDS011;45999;48.808;9.182;2023-04-30T04:44:40;11.47;;;10.27;;
146;SDS011;45999;48.808;9.182;2023-04-30T04:47:06;11.07;;;9.83;;
146;SDS011;45999;48.808;9.182;2023-04-30T04:49:34;10.57;;;9.40;;
146;SDS011;45999;48.808;9.182;2023-04-30T04:52:00;10.87;;;9.77;;
146;SDS011;45999;48.808;9.182;2023-04-30T04:54:27;11.53;;;9.77;;
146;SDS011;45999;48.808;9.182;2023-04-30T04:56:53;10.97;;;9.43;;
146;SDS011;45999;48.808;9.182;2023-04-30T04:59:19;10.83;;;9.73;;
146;SDS011;45999;48.808;9.182;2023-04-30T05:01:46;12.83;;;10.40;;
146;SDS011;45999;48.808;9.182;2023-04-30T05:04:12;11.30;;;9.83;;
146;SDS011;45999;48.808;9.182;2023-04-30T05:06:38;10.80;;;9.77;;
146;SDS011;45999;48.808;9.182;2023-04-30T05:09:06;11.40;;;10.37;;
146;SDS011;45999;48.808;9.182;2023-04-30T05:11:33;11.10;;;9.90;;
146;SDS011;45999;48.808;9.182;2023-04-30T05:14:00;10.47;;;9.43;;
146;SDS011;45999;48.808;9.182;2023-04-30T05:16:26;11.43;;;10.27;;
146;SDS011;45999;48.808;9.182;2023-04-30T05:18:53;10.60;;;9.40;;
146;SDS011;45999;48.808;9.182;2023-04-30T05:21:19;10.23;;;9.23;;
146;SDS011;45999;48.808;9.182;2023-04-30T05:23:45;10.20;;;9.20;;
146;SDS011;45999;48.808;9.182;2023-04-30T05:26:12;10.67;;;9.67;;
146;SDS011;45999;48.808;9.182;2023-04-30T05:28:38;10.07;;;9.07;;
146;SDS011;45999;48.808;9.182;2023-04-30T05:31:04;9.90;;;9.00;;
146;SDS011;45999;48.808;9.182;2023-04-30T05:33:31;10.90;;;9.80;;
146;SDS011;45999;48.808;9.182;2023-04-30T05:35:57;11.37;;;10.23;;
146;SDS011;45999;48.808;9.182;2023-04-30T05:38:24;11.00;;;9.90;;
146;SDS011;45999;48.808;9.182;2023-04-30T05:40:50;10.10;;;8.97;;
146;SDS011;45999;48.808;9.182;2023-04-30T05:43:16;10.63;;;9.60;;
146;SDS011;45999;48.808;9.182;2023-04-30T05:45:43;10.10;;;9.20;;
146;SDS011;45999;48.808;9.182;2023-04-30T05:48:10;10.77;;;9.67;;
146;SDS011;45999;48.808;9.182;2023-04-30T05:50:36;10.90;;;9.80;;
146;SDS011;45999;48.808;9.182;2023-04-30T05:53:02;9.70;;;8.80;;
146;SDS011;45999;48.808;9.182;2023-04-30T05:55:29;10.77;;;9.77;;
146;SDS011;45999;48.808;9.182;2023-04-30T05:57:56;9.80;;;8.90;;
146;SDS011;45999;48.808;9.182;2023-04-30T06:00:22;10.83;;;9.17;;
146;SDS011;45999;48.808;9.182;2023-04-30T06:02:48;9.77;;;8.77;;
146;SDS011;45999;48.808;9.182;2023-04-30T06:05:15;11.07;;;9.93;;
146;SDS011;45999;48.808;9.182;2023-04-30T06:07:41;9.90;;;8.87;;
146;SDS011;45999;48.808;9.182;2023-04-30T06:10:07;11.47;;;10.17;;
146;SDS011;45999;48.808;9.182;2023-04-30T06:12:34;9.80;;;8.90;;
146;SDS011;45999;48.808;9.182;2023-04-30T06:15:01;10.40;;;9.40;;
146;SDS011;45999;48.808;9.182;2023-04-30T06:17:27;10.03;;;9.13;;
146;SDS011;45999;48.808;9.182;2023-04-30T06:19:54;9.37;;;8.47;;
146;SDS011;45999;48.808;9.182;2023-04-30T06:22:22;10.10;;;9.20;;
146;SDS011;45999;48.808;9.182;2023-04-30T06:24:48;9.50;;;8.50;;
146;SDS011;45999;48.808;9.182;2023-04-30T06:27:15;9.23;;;8.30;;
146;SDS011;45999;48.808;9.182;2023-04-30T06:29:41;9.63;;;8.63;;
146;SDS011;45999;48.808;9.182;2023-04-30T06:32:07;8.73;;;7.83;;
146;SDS011;45999;48.808;9.182;2023-04-30T06:34:34;9.53;;;8.67;;
146;SDS011;45999;48.808;9.182;2023-04-30T06:37:01;8.50;;;7.70;;
146;SDS011;45999;48.808;9.182;2023-04-30T06:39:27;8.10;;;7.30;;
146;SDS011;45999;48.808;9.182;2023-04-30T06:41:54;8.23;;;7.40;;
146;SDS011;45999;48.808;9.182;2023-04-30T06:44:20;8.67;;;7.80;;
146;SDS011;45999;48.808;9.182;2023-04-30T06:46:47;8.50;;;7.70;;
146;SDS011;45999;48.808;9.182;2023-04-30T06:49:13;8.37;;;7.57;;
146;SDS011;45999;48.808;9.182;2023-04-30T06:51:40;8.60;;;7.77;;
146;SDS011;45999;48.808;9.182;2023-04-30T06:54:06;7.90;;;7.20;;
146;SDS011;45999;48.808;9.182;2023-04-30T06:56:33;7.63;;;6.90;;
146;SDS011;45999;48.808;9.182;2023-04-30T06:58:59;9.03;;;7.53;;
146;SDS011;45999;48.808;9.182;2023-04-30T07:01:26;7.90;;;7.10;;
146;SDS011;45999;48.808;9.182;2023-04-30T07:03:52;8.50;;;7.70;;
146;SDS011;45999;48.808;9.182;2023-04-30T07:06:19;8.20;;;7.40;;
146;SDS011;45999;48.808;9.182;2023-04-30T07:08:46;8.53;;;7.67;;
146;SDS011;45999;48.808;9.182;2023-04-30T07:11:12;8.00;;;7.30;;
146;SDS011;45999;48.808;9.182;2023-04-30T07:13:39;7.60;;;6.90;;
146;SDS011;45999;48.808;9.182;2023-04-30T07:16:06;7.70;;;6.90;;
146;SDS011;45999;48.808;9.182;2023-04-30T07:18:33;7.70;;;7.00;;
146;SDS011;45999;48.808;9.182;2023-04-30T07:21:00;7.67;;;6.97;;
146;SDS011;45999;48.808;9.182;2023-04-30T07:23:26;7.90;;;7.20;;
146;SDS011;45999;48.808;9.182;2023-04-30T07:25:52;7.63;;;6.83;;
146;SDS011;45999;48.808;9.182;2023-04-30T07:28:19;7.73;;;7.03;;
146;SDS011;45999;48.808;9.182;2023-04-30T07:30:45;8.33;;;7.37;;
146;SDS011;45999;48.808;9.182;2023-04-30T07:33:11;6.83;;;6.23;;
146;SDS011;45999;48.808;9.182;2023-04-30T07:35:38;6.50;;;5.90;;
146;SDS011;45999;48.808;9.182;2023-04-30T07:38:04;7.30;;;6.60;;
146;SDS011;45999;48.808;9.182;2023-04-30T07:40:31;7.87;;;6.70;;
146;SDS011;45999;48.808;9.182;2023-04-30T07:42:57;7.67;;;6.87;;
146;SDS011;45999;48.808;9.182;2023-04-30T07:45:23;6.87;;;6.27;;
146;SDS011;45999;48.808;9.182;2023-04-30T07:47:50;6.63;;;6.07;;
146;SDS011;45999;48.808;9.182;2023-04-30T07:50:16;7.40;;;6.70;;
146;SDS011;45999;48.808;9.182;2023-04-30T07:52:43;6.40;;;5.80;;
146;SDS011;45999;48.808;9.182;2023-04-30T07:55:09;6.60;;;5.83;;
146;SDS011;45999;48.808;9.182;2023-04-30T07:57:36;6.63;;;5.83;;
146;SDS011;45999;48.808;9.182;2023-04-30T08:00:02;6.80;;;6.10;;
146;SDS011;45999;48.808;9.182;2023-04-30T08:02:29;6.97;;;5.63;;
146;SDS011;45999;48.808;9.182;2023-04-30T08:04:55;6.23;;;5.63;;
146;SDS011;45999;48.808;9.182;2023-04-30T08:07:22;6.47;;;5.87;;
146;SDS011;45999;48.808;9.182;2023-04-30T08:09:49;5.70;;;5.17;;
146;SDS011;45999;48.808;9.182;2023-04-30T08:12:15;9.03;;;5.97;;
146;SDS011;45999;48.808;9.182;2023-04-30T08:14:42;6.67;;;6.07;;
146;SDS011;45999;48.808;9.182;2023-04-30T08:17:08;6.03;;;5.53;;
146;SDS011;45999;48.808;9.182;2023-04-30T08:19:35;5.13;;;4.63;;
146;SDS011;45999;48.808;9.182;2023-04-30T08:22:02;5.37;;;4.87;;
146;SDS011;45999;48.808;9.182;2023-04-30T08:24:28;5.13;;;4.70;;
146;SDS011;45999;48.808;9.182;2023-04-30T08:26:55;4.67;;;4.23;;
146;SDS011;45999;48.808;9.182;2023-04-30T08:29:21;4.57;;;4.07;;
146;SDS011;45999;48.808;9.182;2023-04-30T08:31:47;4.50;;;4.10;;
146;SDS011;45999;48.808;9.182;2023-04-30T08:34:14;5.90;;;5.23;;
146;SDS011;45999;48.808;9.182;2023-04-30T08:36:40;4.87;;;3.90;;
146;SDS011;45999;48.808;9.182;2023-04-30T08:39:06;4.83;;;4.33;;
146;SDS011;45999;48.808;9.182;2023-04-30T08:41:33;4.70;;;4.30;;
146;SDS011;45999;48.808;9.182;2023-04-30T08:44:01;4.10;;;3.70;;
146;SDS011;45999;48.808;9.182;2023-04-30T08:46:29;4.47;;;3.60;;
146;SDS011;45999;48.808;9.182;2023-04-30T08:48:57;4.50;;;4.03;;
146;SDS011;45999;48.808;9.182;2023-04-30T08:51:24;3.90;;;3.50;;
146;SDS011;45999;48.808;9.182;2023-04-30T08:53:51;3.50;;;3.20;;
146;SDS011;45999;48.808;9.182;2023-04-30T08:56:20;3.10;;;2.77;;
146;SDS011;45999;48.808;9.182;2023-04-30T08:58:46;2.90;;;2.70;;
146;SDS011;45999;48.808;9.182;2023-04-30T09:01:13;4.13;;;3.20;;
146;SDS011;45999;48.808;9.182;2023-04-30T09:03:40;3.37;;;3.03;;
146;SDS011;45999;48.808;9.182;2023-04-30T09:06:06;3.03;;;2.83;;
146;SDS011;45999;48.808;9.182;2023-04-30T09:08:39;3.30;;;3.00;;
146;SDS011;45999;48.808;9.182;2023-04-30T09:13:54;4.90;;;2.70;;
146;SDS011;45999;48.808;9.182;2023-04-30T09:16:23;3.07;;;2.77;;
146;SDS011;45999;48.808;9.182;2023-04-30T09:18:51;2.77;;;2.57;;
146;SDS011;45999;48.808;9.182;2023-04-30T09:21:33;2.77;;;2.57;;
146;SDS011;45999;48.808;9.182;2023-04-30T09:24:02;2.50;;;2.30;;
146;SDS011;45999;48.808;9.182;2023-04-30T09:26:36;2.60;;;2.40;;
146;SDS011;45999;48.808;9.182;2023-04-30T09:29:04;2.33;;;2.10;;
146;SDS011;45999;48.808;9.182;2023-04-30T09:31:33;2.43;;;1.90;;
146;SDS011;45999;48.808;9.182;2023-04-30T09:34:00;2.00;;;1.80;;
146;SDS011;45999;48.808;9.182;2023-04-30T09:36:27;2.07;;;1.93;;
146;SDS011;45999;48.808;9.182;2023-04-30T09:38:54;1.73;;;1.63;;
146;SDS011;45999;48.808;9.182;2023-04-30T09:43:48;2.67;;;2.10;;
146;SDS011;45999;48.808;9.182;2023-04-30T09:46:15;2.70;;;2.50;;
146;SDS011;45999;48.808;9.182;2023-04-30T09:48:44;2.53;;;2.07;;
146;SDS011;45999;48.808;9.182;2023-04-30T09:51:10;2.43;;;2.27;;
146;SDS011;45999;48.808;9.182;2023-04-30T09:53:37;2.67;;;2.33;;
146;SDS011;45999;48.808;9.182;2023-04-30T09:56:07;2.60;;;2.30;;
146;SDS011;45999;48.808;9.182;2023-04-30T09:58:35;2.40;;;2.10;;
146;SDS011;45999;48.808;9.182;2023-04-30T10:01:07;3.20;;;2.90;;
146;SDS011;45999;48.808;9.182;2023-04-30T10:03:37;2.60;;;2.30;;
146;SDS011;45999;48.808;9.182;2023-04-30T10:06:06;2.70;;;2.50;;
146;SDS011;45999;48.808;9.182;2023-04-30T10:08:41;4.20;;;2.60;;
146;SDS011;45999;48.808;9.182;2023-04-30T10:11:09;2.80;;;2.60;;
146;SDS011;45999;48.808;9.182;2023-04-30T10:16:37;2.93;;;2.07;;
146;SDS011;45999;48.808;9.182;2023-04-30T10:19:18;2.73;;;2.10;;
146;SDS011;45999;48.808;9.182;2023-04-30T10:21:47;1.83;;;1.67;;
146;SDS011;45999;48.808;9.182;2023-04-30T10:24:14;2.30;;;1.90;;
146;SDS011;45999;48.808;9.182;2023-04-30T10:26:43;2.93;;;2.10;;
146;SDS011;45999;48.808;9.182;2023-04-30T10:29:11;2.40;;;2.20;;
146;SDS011;45999;48.808;9.182;2023-04-30T10:31:39;2.10;;;1.97;;
146;SDS011;45999;48.808;9.182;2023-04-30T10:34:11;2.70;;;1.83;;
146;SDS011;45999;48.808;9.182;2023-04-30T10:36:47;2.03;;;1.87;;
146;SDS011;45999;48.808;9.182;2023-04-30T10:39:22;2.17;;;2.00;;
146;SDS011;45999;48.808;9.182;2023-04-30T10:41:51;3.30;;;2.60;;
146;SDS011;45999;48.808;9.182;2023-04-30T10:44:27;2.93;;;2.67;;
146;SDS011;45999;48.808;9.182;2023-04-30T10:46:58;2.83;;;2.60;;
146;SDS011;45999;48.808;9.182;2023-04-30T10:49:26;2.33;;;2.13;;
146;SDS011;45999;48.808;9.182;2023-04-30T10:51:53;2.50;;;2.30;;
146;SDS011;45999;48.808;9.182;2023-04-30T10:54:24;2.63;;;2.43;;
146;SDS011;45999;48.808;9.182;2023-04-30T10:56:52;3.40;;;3.10;;
146;SDS011;45999;48.808;9.182;2023-04-30T10:59:33;2.83;;;2.63;;
146;SDS011;45999;48.808;9.182;2023-04-30T11:02:01;3.20;;;2.67;;
146;SDS011;45999;48.808;9.182;2023-04-30T11:04:27;2.80;;;2.53;;
146;SDS011;45999;48.808;9.182;2023-04-30T11:12:14;3.63;;;2.43;;
146;SDS011;45999;48.808;9.182;2023-04-30T11:14:45;2.77;;;2.47;;
146;SDS011;45999;48.808;9.182;2023-04-30T11:17:12;3.10;;;2.30;;
146;SDS011;45999;48.808;9.182;2023-04-30T11:19:49;3.07;;;2.70;;
146;SDS011;45999;48.808;9.182;2023-04-30T11:22:22;3.20;;;2.87;;
146;SDS011;45999;48.808;9.182;2023-04-30T11:24:50;2.70;;;2.50;;
146;SDS011;45999;48.808;9.182;2023-04-30T11:27:27;2.80;;;2.60;;
146;SDS011;45999;48.808;9.182;2023-04-30T11:29:55;3.57;;;2.70;;
146;SDS011;45999;48.808;9.182;2023-04-30T11:32:24;2.93;;;2.70;;
146;SDS011;45999;48.808;9.182;2023-04-30T11:34:52;3.97;;;2.93;;
146;SDS011;45999;48.808;9.182;2023-04-30T11:37:20;2.90;;;2.70;;
146;SDS011;45999;48.808;9.182;2023-04-30T11:39:49;2.80;;;2.60;;
146;SDS011;45999;48.808;9.182;2023-04-30T11:42:19;4.00;;;2.67;;
146;SDS011;45999;48.808;9.182;2023-04-30T11:44:46;3.27;;;3.07;;
146;SDS011;45999;48.808;9.182;2023-04-30T11:47:12;3.13;;;2.93;;
146;SDS011;45999;48.808;9.182;2023-04-30T11:49:39;2.80;;;2.60;;
146;SDS011;45999;48.808;9.182;2023-04-30T11:52:06;4.10;;;2.80;;
146;SDS011;45999;48.808;9.182;2023-04-30T11:54:36;2.77;;;2.43;;
146;SDS011;45999;48.808;9.182;2023-04-30T11:57:03;3.03;;;2.80;;
146;SDS011;45999;48.808;9.182;2023-04-30T11:59:30;3.43;;;2.50;;
146;SDS011;45999;48.808;9.182;2023-04-30T12:02:05;3.80;;;2.30;;
146;SDS011;45999;48.808;9.182;2023-04-30T12:04:31;3.03;;;2.73;;
146;SDS011;45999;48.808;9.182;2023-04-30T12:06:59;2.77;;;2.50;;
146;SDS011;45999;48.808;9.182;2023-04-30T12:09:26;3.35;;;2.40;;
146;SDS011;45999;48.808;9.182;2023-04-30T12:11:52;3.50;;;2.27;;
146;SDS011;45999;48.808;9.182;2023-04-30T12:14:19;2.73;;;2.53;;
146;SDS011;45999;48.808;9.182;2023-04-30T12:16:50;2.67;;;2.47;;
146;SDS011;45999;48.808;9.182;2023-04-30T12:19:18;2.43;;;2.23;;
146;SDS011;45999;48.808;9.182;2023-04-30T12:21:46;3.07;;;2.40;;
146;SDS011;45999;48.808;9.182;2023-04-30T12:24:14;2.40;;;2.20;;
146;SDS011;45999;48.808;9.182;2023-04-30T12:26:41;2.67;;;2.47;;
146;SDS011;45999;48.808;9.182;2023-04-30T12:29:09;4.90;;;2.80;;
146;SDS011;45999;48.808;9.182;2023-04-30T12:31:36;2.83;;;2.50;;
146;SDS011;45999;48.808;9.182;2023-04-30T12:34:07;2.40;;;2.20;;
146;SDS011;45999;48.808;9.182;2023-04-30T12:36:34;2.57;;;2.37;;
146;SDS011;45999;48.808;9.182;2023-04-30T12:39:02;2.60;;;2.40;;
146;SDS011;45999;48.808;9.182;2023-04-30T12:41:50;2.40;;;2.30;;
146;SDS011;45999;48.808;9.182;2023-04-30T12:46:49;3.13;;;2.47;;
146;SDS011;45999;48.808;9.182;2023-04-30T12:49:26;3.23;;;2.40;;
146;SDS011;45999;48.808;9.182;2023-04-30T12:52:01;2.80;;;2.60;;
146;SDS011;45999;48.808;9.182;2023-04-30T12:54:29;2.43;;;2.23;;
146;SDS011;45999;48.808;9.182;2023-04-30T12:57:01;3.70;;;2.50;;
146;SDS011;45999;48.808;9.182;2023-04-30T12:59:31;2.43;;;2.23;;
146;SDS011;45999;48.808;9.182;2023-04-30T13:04:33;2.30;;;2.10;;
146;SDS011;45999;48.808;9.182;2023-04-30T13:06:59;2.67;;;2.47;;
146;SDS011;45999;48.808;9.182;2023-04-30T13:09:26;2.90;;;2.33;;
146;SDS011;45999;48.808;9.182;2023-04-30T13:11:53;2.53;;;2.17;;
146;SDS011;45999;48.808;9.182;2023-04-30T13:14:19;2.60;;;2.23;;
146;SDS011;45999;48.808;9.182;2023-04-30T13:16:46;2.70;;;2.50;;
146;SDS011;45999;48.808;9.182;2023-04-30T13:19:12;2.73;;;2.20;;
146;SDS011;45999;48.808;9.182;2023-04-30T13:21:39;2.67;;;2.40;;
146;SDS011;45999;48.808;9.182;2023-04-30T13:24:06;5.50;;;3.80;;
146;SDS011;45999;48.808;9.182;2023-04-30T13:26:32;2.17;;;2.07;;
146;SDS011;45999;48.808;9.182;2023-04-30T13:28:59;3.53;;;2.70;;
146;SDS011;45999;48.808;9.182;2023-04-30T13:31:25;2.47;;;2.23;;
146;SDS011;45999;48.808;9.182;2023-04-30T13:33:52;2.30;;;2.10;;
146;SDS011;45999;48.808;9.182;2023-04-30T13:36:18;2.30;;;2.10;;
146;SDS011;45999;48.808;9.182;2023-04-30T13:38:45;2.57;;;2.37;;
146;SDS011;45999;48.808;9.182;2023-04-30T13:41:12;2.67;;;2.47;;
146;SDS011;45999;48.808;9.182;2023-04-30T13:43:38;3.77;;;2.67;;
146;SDS011;45999;48.808;9.182;2023-04-30T13:46:06;3.80;;;2.70;;
146;SDS011;45999;48.808;9.182;2023-04-30T13:48:33;3.10;;;2.63;;
146;SDS011;45999;48.808;9.182;2023-04-30T13:50:59;2.53;;;2.33;;
146;SDS011;45999;48.808;9.182;2023-04-30T13:53:26;2.40;;;2.20;;
146;SDS011;45999;48.808;9.182;2023-04-30T13:55:52;2.50;;;2.30;;
146;SDS011;45999;48.808;9.182;2023-04-30T13:58:19;4.17;;;2.37;;
146;SDS011;45999;48.808;9.182;2023-04-30T14:00:46;2.70;;;2.00;;
146;SDS011;45999;48.808;9.182;2023-04-30T14:03:12;2.40;;;2.20;;
146;SDS011;45999;48.808;9.182;2023-04-30T14:05:39;2.20;;;2.00;;
146;SDS011;45999;48.808;9.182;2023-04-30T14:08:05;2.13;;;2.03;;
146;SDS011;45999;48.808;9.182;2023-04-30T14:10:31;4.67;;;2.10;;
146;SDS011;45999;48.808;9.182;2023-04-30T14:12:58;2.30;;;2.10;;
146;SDS011;45999;48.808;9.182;2023-04-30T14:15:24;2.50;;;2.17;;
146;SDS011;45999;48.808;9.182;2023-04-30T14:17:51;5.63;;;2.47;;
146;SDS011;45999;48.808;9.182;2023-04-30T14:20:18;2.40;;;2.20;;
146;SDS011;45999;48.808;9.182;2023-04-30T14:22:44;3.53;;;2.53;;
146;SDS011;45999;48.808;9.182;2023-04-30T14:25:10;2.43;;;2.10;;
146;SDS011;45999;48.808;9.182;2023-04-30T14:27:38;1.97;;;1.87;;
146;SDS011;45999;48.808;9.182;2023-04-30T14:30:05;2.30;;;2.10;;
146;SDS011;45999;48.808;9.182;2023-04-30T14:32:33;2.63;;;2.43;;
146;SDS011;45999;48.808;9.182;2023-04-30T14:34:59;2.97;;;2.30;;
146;SDS011;45999;48.808;9.182;2023-04-30T14:37:26;2.23;;;2.10;;
146;SDS011;45999;48.808;9.182;2023-04-30T14:39:53;3.03;;;2.70;;
146;SDS011;45999;48.808;9.182;2023-04-30T14:42:19;2.60;;;2.40;;
146;SDS011;45999;48.808;9.182;2023-04-30T14:44:46;2.40;;;2.20;;
146;SDS011;45999;48.808;9.182;2023-04-30T14:47:12;2.47;;;2.27;;
146;SDS011;45999;48.808;9.182;2023-04-30T14:49:39;2.90;;;2.13;;
146;SDS011;45999;48.808;9.182;2023-04-30T14:52:05;4.57;;;2.30;;
146;SDS011;45999;48.808;9.182;2023-04-30T14:54:31;2.33;;;2.10;;
146;SDS011;45999;48.808;9.182;2023-04-30T14:56:58;3.23;;;2.23;;
146;SDS011;45999;48.808;9.182;2023-04-30T14:59:24;2.60;;;2.40;;
146;SDS011;45999;48.808;9.182;2023-04-30T15:01:51;3.03;;;2.30;;
146;SDS011;45999;48.808;9.182;2023-04-30T15:04:17;3.90;;;2.17;;
146;SDS011;45999;48.808;9.182;2023-04-30T15:06:43;2.60;;;2.07;;
146;SDS011;45999;48.808;9.182;2023-04-30T15:09:10;2.47;;;2.27;;
146;SDS011;45999;48.808;9.182;2023-04-30T15:11:36;2.77;;;2.10;;
146;SDS011;45999;48.808;9.182;2023-04-30T15:14:02;1.80;;;1.70;;
146;SDS011;45999;48.808;9.182;2023-04-30T15:16:29;2.60;;;2.17;;
146;SDS011;45999;48.808;9.182;2023-04-30T15:18:55;2.20;;;2.07;;
146;SDS011;45999;48.808;9.182;2023-04-30T15:21:22;2.77;;;1.93;;
146;SDS011;45999;48.808;9.182;2023-04-30T15:23:48;2.30;;;2.10;;
146;SDS011;45999;48.808;9.182;2023-04-30T15:26:14;2.93;;;1.90;;
146;SDS011;45999;48.808;9.182;2023-04-30T15:28:41;2.73;;;1.93;;
146;SDS011;45999;48.808;9.182;2023-04-30T15:31:08;2.30;;;2.00;;
146;SDS011;45999;48.808;9.182;2023-04-30T15:33:35;3.00;;;2.20;;
146;SDS011;45999;48.808;9.182;2023-04-30T15:36:05;5.03;;;2.40;;
146;SDS011;45999;48.808;9.182;2023-04-30T15:38:33;2.30;;;2.10;;
146;SDS011;45999;48.808;9.182;2023-04-30T15:41:00;2.03;;;1.93;;
146;SDS011;45999;48.808;9.182;2023-04-30T15:43:26;2.87;;;2.67;;
146;SDS011;45999;48.808;9.182;2023-04-30T15:45:53;2.33;;;2.13;;